Time;durP1;ratioP1;P1;durP2;ratioP2;P2;SDS_P1;SDS_P2;PMS_P1;PMS_P2;Temp;Humidity;BMP_temperature;BMP_pressure;BME280_temperature;BME280_humidity;BME280_pressure;Samples;Min_cycle;Max_cycle;Signal;HPM_P1;HPM_P2
2022/12/24 00:00:06;;;;;;;20.40;14.07;;;7.60;99.90;;;;;;5071916;28;20056;-73
2022/12/24 00:02:31;;;;;;;20.23;13.30;;;7.50;99.90;;;;;;5079877;28;20430;-74
2022/12/24 00:04:57;;;;;;;19.75;13.93;;;7.50;99.90;;;;;;5063995;28;20055;-74
2022/12/24 00:07:23;;;;;;;21.00;14.20;;;7.40;99.90;;;;;;5061542;28;20071;-73
2022/12/24 00:09:48;;;;;;;19.08;12.93;;;7.60;99.90;;;;;;5061014;28;20136;-73
2022/12/24 00:12:14;;;;;;;20.40;13.65;;;7.50;99.90;;;;;;5061269;28;20048;-74
2022/12/24 00:14:40;;;;;;;18.73;13.10;;;7.60;99.90;;;;;;5049559;28;20492;-73
2022/12/24 00:17:05;;;;;;;18.70;12.68;;;7.50;99.90;;;;;;5047329;28;20057;-73
2022/12/24 00:19:31;;;;;;;19.05;13.52;;;7.70;99.90;;;;;;5065830;28;20040;-73
2022/12/24 00:21:57;;;;;;;22.30;13.88;;;7.60;99.90;;;;;;5048004;28;20040;-73
2022/12/24 00:24:22;;;;;;;22.58;14.05;;;7.50;99.90;;;;;;5065407;28;20119;-74
2022/12/24 00:26:48;;;;;;;21.13;14.40;;;7.50;99.90;;;;;;5047427;28;20076;-74
2022/12/24 00:29:14;;;;;;;22.10;14.45;;;7.60;99.90;;;;;;5081556;28;20051;-73
2022/12/24 00:31:39;;;;;;;20.52;14.48;;;7.50;99.90;;;;;;5063232;28;20128;-73
2022/12/24 00:34:05;;;;;;;22.75;15.00;;;7.60;99.90;;;;;;5057267;28;20044;-74
2022/12/24 00:36:31;;;;;;;20.83;13.77;;;7.60;99.90;;;;;;5074947;28;20100;-74
2022/12/24 00:38:56;;;;;;;20.20;13.48;;;7.50;99.90;;;;;;5043930;28;20532;-74
2022/12/24 00:41:27;;;;;;;19.92;14.02;;;7.60;99.90;;;;;;5056432;28;20040;-74
2022/12/24 00:43:54;;;;;;;23.35;14.85;;;7.60;99.90;;;;;;5078488;28;20052;-74
2022/12/24 00:46:20;;;;;;;22.20;14.55;;;7.70;99.90;;;;;;5074594;28;20101;-74
2022/12/24 00:48:47;;;;;;;23.40;15.35;;;7.50;99.90;;;;;;5060155;28;20504;-74
2022/12/24 00:51:12;;;;;;;20.65;14.23;;;7.70;99.90;;;;;;5057490;28;20048;-74
2022/12/24 00:53:38;;;;;;;22.50;13.75;;;7.50;99.90;;;;;;5065709;28;20044;-74
2022/12/24 00:56:04;;;;;;;20.15;13.85;;;7.60;99.90;;;;;;5061801;28;20112;-74
2022/12/24 00:58:30;;;;;;;23.40;15.25;;;7.60;99.90;;;;;;5057615;28;20053;-74
2022/12/24 01:00:56;;;;;;;28.25;14.95;;;7.50;99.90;;;;;;5052939;28;20044;-74
2022/12/24 01:03:21;;;;;;;20.33;13.30;;;7.40;99.90;;;;;;5058594;28;20071;-74
2022/12/24 01:05:47;;;;;;;20.17;13.35;;;7.50;99.90;;;;;;5061658;28;20075;-74
2022/12/24 01:08:13;;;;;;;23.45;15.30;;;7.50;99.90;;;;;;5059433;28;20048;-74
2022/12/24 01:10:38;;;;;;;23.50;15.20;;;7.50;99.90;;;;;;5061946;28;20053;-74
2022/12/24 01:13:04;;;;;;;23.05;14.70;;;7.50;99.90;;;;;;5061805;28;20100;-73
2022/12/24 01:15:30;;;;;;;24.88;14.57;;;7.50;99.90;;;;;;5060892;28;20041;-73
2022/12/24 01:17:57;;;;;;;23.45;15.05;;;7.60;99.90;;;;;;5042749;28;20048;-73
2022/12/24 01:20:23;;;;;;;27.02;15.57;;;7.40;99.90;;;;;;5060963;28;20072;-73
2022/12/24 01:22:48;;;;;;;24.33;16.33;;;7.50;99.90;;;;;;5063777;28;20516;-73
2022/12/24 01:25:14;;;;;;;26.85;15.55;;;7.40;99.90;;;;;;5062622;28;20052;-73
2022/12/24 01:27:40;;;;;;;28.38;17.45;;;7.30;99.90;;;;;;5037791;28;20104;-73
2022/12/24 01:30:08;;;;;;;33.53;19.40;;;7.40;99.90;;;;;;5059794;28;20075;-73
2022/12/24 01:32:34;;;;;;;32.00;18.98;;;7.60;99.90;;;;;;5063469;28;20049;-73
2022/12/24 01:35:00;;;;;;;39.97;20.30;;;7.50;99.90;;;;;;5058341;28;20045;-73
2022/12/24 01:37:26;;;;;;;45.78;22.05;;;7.70;99.90;;;;;;5061547;28;20053;-73
2022/12/24 01:43:22;;;;;;;43.40;22.88;;;7.70;99.90;;;;;;5057922;28;20071;-73
2022/12/24 01:45:37;;;;;;;45.13;22.70;;;7.90;99.90;;;;;;5068589;28;20468;-73
2022/12/24 01:48:06;;;;;;;50.65;23.80;;;7.90;99.90;;;;;;5063294;28;20048;-74
2022/12/24 01:50:33;;;;;;;48.13;22.80;;;7.90;99.90;;;;;;5061041;28;20074;-74
2022/12/24 01:52:59;;;;;;;43.70;20.50;;;7.80;99.90;;;;;;5059202;28;20087;-74
2022/12/24 01:55:25;;;;;;;45.55;20.98;;;7.90;99.90;;;;;;5059941;28;20048;-74
2022/12/24 01:57:56;;;;;;;51.92;22.67;;;8.00;99.90;;;;;;5058763;28;20045;-73
2022/12/24 02:00:22;;;;;;;57.00;23.05;;;8.00;99.90;;;;;;5077285;28;20044;-74
2022/12/24 02:02:51;;;;;;;52.40;22.80;;;8.00;99.90;;;;;;5076547;28;20049;-74
2022/12/24 02:05:45;;;;;;;49.10;23.35;;;8.10;99.90;;;;;;5066156;28;20051;-73
2022/12/24 02:08:11;;;;;;;47.75;21.60;;;8.10;99.90;;;;;;5080728;28;20059;-74
2022/12/24 02:10:37;;;;;;;46.90;21.13;;;8.10;99.90;;;;;;5048766;28;20048;-74
2022/12/24 02:13:03;;;;;;;46.30;21.05;;;8.10;99.90;;;;;;5061612;28;20048;-74
2022/12/24 02:15:50;;;;;;;45.28;21.63;;;8.30;99.90;;;;;;5073096;28;20205;-74
2022/12/24 02:18:28;;;;;;;41.20;21.60;;;8.30;99.90;;;;;;5051831;28;20067;-74
2022/12/24 02:21:21;;;;;;;37.85;20.02;;;8.20;99.90;;;;;;5056043;28;20053;-73
2022/12/24 02:24:32;;;;;;;42.17;21.77;;;8.20;99.90;;;;;;5049836;28;20048;-73
2022/12/24 02:27:21;;;;;;;41.70;21.25;;;8.30;99.90;;;;;;4998306;28;20059;-72
2022/12/24 02:30:04;;;;;;;38.08;21.13;;;8.20;99.90;;;;;;4988246;28;20049;-72
2022/12/24 02:32:48;;;;;;;35.75;21.05;;;8.20;99.90;;;;;;4999162;28;20058;-72
2022/12/24 02:35:22;;;;;;;33.35;18.70;;;8.20;99.90;;;;;;4969643;28;20067;-72
2022/12/24 02:37:53;;;;;;;34.33;19.33;;;8.30;99.90;;;;;;4998336;28;20128;-72
2022/12/24 02:40:32;;;;;;;31.92;17.73;;;8.40;99.90;;;;;;4996631;28;20577;-73
2022/12/24 02:43:02;;;;;;;27.77;17.05;;;8.50;99.90;;;;;;4990333;28;20046;-73
2022/12/24 02:45:31;;;;;;;34.30;17.65;;;8.40;99.90;;;;;;4975830;28;20538;-73
2022/12/24 02:47:57;;;;;;;28.08;15.63;;;8.60;99.90;;;;;;4969238;28;20074;-73
2022/12/24 02:50:24;;;;;;;28.20;15.57;;;8.50;99.90;;;;;;4969652;28;20066;-73
2022/12/24 02:52:50;;;;;;;24.80;14.35;;;8.70;99.90;;;;;;4968769;28;20459;-73
2022/12/24 02:55:32;;;;;;;25.08;12.77;;;8.80;99.90;;;;;;4969182;28;20035;-73
2022/12/24 02:58:36;;;;;;;20.35;12.40;;;8.70;99.90;;;;;;4957515;28;20054;-73
2022/12/24 03:01:15;;;;;;;17.65;10.70;;;8.80;99.90;;;;;;4967747;28;20055;-73
2022/12/24 03:04:05;;;;;;;18.30;10.70;;;8.80;99.90;;;;;;5004604;28;20053;-73
2022/12/24 03:06:33;;;;;;;;;;;8.70;99.90;;;;;;5039113;28;20053;-73
2022/12/24 03:09:02;;;;;;;17.13;10.30;;;8.90;99.90;;;;;;5044200;28;19966;-73
2022/12/24 03:11:28;;;;;;;17.27;9.70;;;8.90;99.90;;;;;;5056962;28;20477;-73
2022/12/24 03:13:57;;;;;;;20.02;9.77;;;8.80;99.90;;;;;;5014369;28;20052;-73
2022/12/24 03:16:26;;;;;;;18.30;9.95;;;8.80;99.90;;;;;;5011197;28;20046;-73
2022/12/24 03:18:54;;;;;;;17.38;9.23;;;8.80;99.90;;;;;;5058992;28;20037;-73
2022/12/24 03:21:25;;;;;;;26.67;10.25;;;8.90;99.90;;;;;;5068594;28;20059;-73
2022/12/24 03:23:51;;;;;;;24.98;10.18;;;8.70;99.90;;;;;;5068019;28;20033;-73
2022/12/24 03:26:19;;;;;;;27.00;9.57;;;8.90;99.90;;;;;;5054201;28;20072;-73
2022/12/24 03:28:45;;;;;;;26.05;9.00;;;8.70;99.90;;;;;;5062964;28;20048;-73
2022/12/24 03:31:11;;;;;;;37.78;9.48;;;8.80;99.90;;;;;;5036572;28;20064;-73
2022/12/24 03:33:37;;;;;;;31.73;7.00;;;8.70;99.90;;;;;;5027947;28;20041;-73
2022/12/24 03:36:03;;;;;;;31.10;7.47;;;8.80;99.90;;;;;;5037307;28;20104;-73
2022/12/24 03:38:30;;;;;;;35.45;6.60;;;8.90;99.90;;;;;;5043754;28;20152;-73
2022/12/24 03:40:55;;;;;;;29.95;6.93;;;8.90;99.90;;;;;;5037770;28;20097;-73
2022/12/24 03:43:21;;;;;;;31.30;5.43;;;8.80;99.90;;;;;;5060435;28;20052;-73
2022/12/24 03:45:47;;;;;;;33.65;5.70;;;8.80;99.90;;;;;;5074083;28;20390;-73
2022/12/24 03:48:12;;;;;;;32.35;5.95;;;8.90;99.90;;;;;;5056840;28;20096;-73
2022/12/24 03:50:38;;;;;;;33.75;6.22;;;8.70;99.90;;;;;;5056300;28;20048;-73
2022/12/24 03:53:04;;;;;;;29.05;5.22;;;8.70;99.90;;;;;;5057510;28;20053;-73
2022/12/24 03:55:30;;;;;;;33.95;5.30;;;8.80;99.90;;;;;;5071202;28;20071;-73
2022/12/24 03:57:55;;;;;;;37.65;6.00;;;8.70;99.90;;;;;;5060990;28;20110;-73
2022/12/24 04:00:21;;;;;;;39.30;5.90;;;8.80;99.90;;;;;;5059324;28;20049;-73
2022/12/24 04:02:47;;;;;;;34.50;5.90;;;8.80;99.90;;;;;;5056295;28;20048;-73
2022/12/24 04:05:18;;;;;;;34.70;6.07;;;8.60;99.90;;;;;;5052861;28;20045;-73
2022/12/24 04:07:44;;;;;;;31.13;4.57;;;8.70;99.90;;;;;;5075293;28;20052;-73
2022/12/24 04:10:10;;;;;;;38.88;6.07;;;8.80;99.90;;;;;;5058814;28;20044;-73
2022/12/24 04:12:36;;;;;;;38.00;5.38;;;8.60;99.90;;;;;;5054496;28;20044;-73
2022/12/24 04:15:03;;;;;;;35.53;5.28;;;8.70;99.90;;;;;;5068301;28;20041;-73
2022/12/24 04:17:28;;;;;;;33.58;6.43;;;8.70;99.90;;;;;;5053712;28;20053;-73
2022/12/24 04:19:54;;;;;;;47.13;6.38;;;8.80;99.90;;;;;;5051403;28;20044;-73
2022/12/24 04:22:20;;;;;;;28.98;5.15;;;8.70;99.90;;;;;;5054246;28;20084;-73
2022/12/24 04:24:46;;;;;;;38.67;6.53;;;8.80;99.90;;;;;;5050089;28;20076;-73
2022/12/24 04:27:16;;;;;;;34.50;4.72;;;8.70;99.90;;;;;;5071814;28;20045;-73
2022/12/24 04:29:42;;;;;;;31.98;5.53;;;8.70;99.90;;;;;;5051081;28;20113;-73
2022/12/24 04:32:08;;;;;;;33.70;5.28;;;8.70;99.90;;;;;;5050294;28;20076;-73
2022/12/24 04:34:35;;;;;;;37.15;5.85;;;8.80;99.90;;;;;;5046037;28;20049;-74
2022/12/24 04:37:00;;;;;;;28.98;5.97;;;8.70;99.90;;;;;;5058544;28;20059;-74
2022/12/24 04:39:26;;;;;;;26.90;5.40;;;8.80;99.90;;;;;;5061738;28;20045;-71
2022/12/24 04:41:52;;;;;;;27.38;5.50;;;8.70;99.90;;;;;;5063463;28;20040;-71
2022/12/24 04:44:17;;;;;;;28.73;5.05;;;8.70;99.90;;;;;;5067862;28;20057;-72
2022/12/24 04:46:43;;;;;;;29.65;5.05;;;8.80;99.90;;;;;;5080530;28;20119;-72
2022/12/24 04:49:10;;;;;;;26.15;5.10;;;8.80;99.90;;;;;;5051363;28;20088;-72
2022/12/24 04:51:36;;;;;;;30.23;7.10;;;8.70;99.90;;;;;;5052307;28;20055;-72
2022/12/24 04:54:02;;;;;;;30.10;5.40;;;8.70;99.90;;;;;;5048886;28;20069;-72
2022/12/24 04:56:30;;;;;;;38.03;6.25;;;8.70;99.90;;;;;;5068498;28;20080;-72
2022/12/24 04:58:55;;;;;;;31.42;5.78;;;8.70;99.90;;;;;;5048133;28;20865;-72
2022/12/24 05:01:24;;;;;;;36.70;6.22;;;8.90;99.90;;;;;;5056441;28;20067;-72
2022/12/24 05:03:51;;;;;;;33.20;5.95;;;8.80;99.90;;;;;;5082982;28;20044;-72
2022/12/24 05:06:20;;;;;;;36.97;5.95;;;8.80;99.90;;;;;;5065081;28;20147;-72
2022/12/24 05:08:45;;;;;;;31.48;5.72;;;8.60;99.90;;;;;;5081139;28;20052;-72
2022/12/24 05:11:13;;;;;;;43.58;5.97;;;8.80;99.90;;;;;;5066263;28;20056;-72
2022/12/24 05:13:40;;;;;;;51.55;6.60;;;8.70;99.90;;;;;;5066399;28;20056;-73
2022/12/24 05:16:06;;;;;;;30.23;5.78;;;8.70;99.90;;;;;;5062679;28;20124;-72
2022/12/24 05:18:32;;;;;;;46.60;6.93;;;8.80;99.90;;;;;;5067483;28;20049;-72
2022/12/24 05:20:57;;;;;;;40.63;6.47;;;8.90;99.90;;;;;;5084818;28;20082;-72
2022/12/24 05:26:23;;;;;;;37.20;6.25;;;8.70;99.90;;;;;;5049571;28;20066;-73
2022/12/24 05:28:51;;;;;;;34.28;6.00;;;8.70;99.90;;;;;;5049481;28;20056;-73
2022/12/24 05:31:17;;;;;;;44.92;5.68;;;8.70;99.90;;;;;;5052989;28;20079;-73
2022/12/24 05:33:43;;;;;;;30.55;5.30;;;8.60;99.90;;;;;;5055790;28;20556;-73
2022/12/24 05:36:09;;;;;;;36.97;5.75;;;8.60;99.90;;;;;;5069434;28;20079;-73
2022/12/24 05:38:35;;;;;;;34.55;5.57;;;8.60;99.90;;;;;;5055524;28;20051;-73
2022/12/24 05:41:01;;;;;;;38.30;5.40;;;8.60;99.90;;;;;;5070588;28;20060;-73
2022/12/24 05:43:26;;;;;;;39.47;7.32;;;8.40;99.90;;;;;;5070334;28;20056;-73
2022/12/24 05:46:01;;;;;;;29.33;5.28;;;8.40;99.90;;;;;;5081653;28;20107;-73
2022/12/24 05:48:27;;;;;;;38.58;6.30;;;8.40;99.90;;;;;;5058169;28;20068;-72
2022/12/24 05:50:54;;;;;;;40.25;6.32;;;8.40;99.90;;;;;;5044899;28;20101;-73
2022/12/24 05:53:20;;;;;;;48.28;6.88;;;8.40;99.90;;;;;;5049429;28;20087;-73
2022/12/24 05:55:45;;;;;;;35.55;5.75;;;8.50;99.90;;;;;;5061881;28;20045;-73
2022/12/24 05:58:11;;;;;;;37.65;6.68;;;8.50;99.90;;;;;;5045536;28;20581;-73
2022/12/24 06:00:37;;;;;;;45.00;5.53;;;8.50;99.90;;;;;;5052183;28;20048;-73
2022/12/24 06:03:03;;;;;;;43.78;5.72;;;8.50;99.90;;;;;;5038759;28;20045;-73
2022/12/24 06:05:29;;;;;;;47.72;6.88;;;8.30;99.90;;;;;;5068359;28;20070;-73
2022/12/24 06:07:55;;;;;;;40.10;5.85;;;8.50;99.90;;;;;;5068928;28;20044;-73
2022/12/24 06:10:21;;;;;;;47.25;6.32;;;8.40;99.90;;;;;;5054572;28;20052;-74
2022/12/24 06:12:47;;;;;;;37.65;6.03;;;8.40;99.90;;;;;;5056705;28;20095;-74
2022/12/24 06:15:12;;;;;;;41.22;5.30;;;8.50;99.90;;;;;;5053899;28;20051;-74
2022/12/24 06:17:38;;;;;;;49.17;6.25;;;8.50;99.90;;;;;;5086719;28;20048;-73
2022/12/24 06:20:04;;;;;;;39.88;6.32;;;8.60;99.90;;;;;;5072530;28;20068;-73
2022/12/24 06:22:30;;;;;;;56.05;6.90;;;8.50;99.90;;;;;;5086716;28;20048;-73
2022/12/24 06:24:55;;;;;;;51.95;6.78;;;8.60;99.90;;;;;;5068791;28;20056;-73
2022/12/24 06:27:21;;;;;;;42.85;7.05;;;8.70;99.90;;;;;;5064714;28;20104;-72
2022/12/24 06:29:47;;;;;;;47.00;6.72;;;8.60;99.90;;;;;;5080696;28;20051;-72
2022/12/24 06:32:13;;;;;;;45.80;7.70;;;8.70;99.90;;;;;;5063471;28;20053;-72
2022/12/24 06:34:38;;;;;;;52.42;8.40;;;8.70;99.90;;;;;;5079558;28;20041;-73
2022/12/24 06:37:04;;;;;;;43.25;7.75;;;8.80;99.90;;;;;;5065430;28;20048;-73
2022/12/24 06:39:30;;;;;;;45.97;8.65;;;8.70;99.90;;;;;;5046492;28;20037;-73
2022/12/24 06:41:56;;;;;;;43.72;7.43;;;8.70;99.90;;;;;;5066291;28;20036;-72
2022/12/24 06:44:22;;;;;;;39.03;7.38;;;8.80;99.90;;;;;;5063173;28;20049;-73
2022/12/24 06:46:48;;;;;;;39.33;6.78;;;8.80;99.90;;;;;;5066535;28;20100;-73
2022/12/24 06:49:13;;;;;;;43.05;7.57;;;8.80;99.90;;;;;;5064790;28;20094;-73
2022/12/24 06:51:40;;;;;;;51.00;8.95;;;8.70;99.90;;;;;;5085392;28;20067;-73
2022/12/24 06:54:06;;;;;;;45.35;8.43;;;8.80;99.90;;;;;;5081130;28;20623;-73
2022/12/24 06:56:31;;;;;;;38.72;8.02;;;8.80;99.90;;;;;;5064236;28;20068;-72
2022/12/24 06:58:57;;;;;;;40.67;8.45;;;8.80;99.90;;;;;;5062964;28;20044;-72
2022/12/24 07:01:23;;;;;;;41.58;8.48;;;9.00;99.90;;;;;;5080461;28;20051;-72
2022/12/24 07:03:49;;;;;;;40.05;8.32;;;8.90;99.90;;;;;;5046854;28;20128;-72
2022/12/24 07:06:23;;;;;;;49.17;10.07;;;9.20;99.90;;;;;;5049628;28;20123;-72
2022/12/24 07:08:49;;;;;;;52.63;8.82;;;9.20;99.90;;;;;;5064680;28;20076;-72
2022/12/24 07:11:16;;;;;;;43.45;7.68;;;9.20;99.90;;;;;;5046035;28;20045;-72
2022/12/24 07:13:42;;;;;;;45.85;9.50;;;9.10;99.90;;;;;;5057659;28;20049;-72
2022/12/24 07:16:07;;;;;;;46.28;9.05;;;9.10;99.90;;;;;;5063348;28;20109;-73
2022/12/24 07:18:33;;;;;;;50.45;8.75;;;9.10;99.90;;;;;;5085631;28;20382;-73
2022/12/24 07:20:59;;;;;;;40.40;7.93;;;9.10;99.90;;;;;;5061711;28;20044;-72
2022/12/24 07:23:25;;;;;;;49.53;7.93;;;9.10;99.90;;;;;;5067071;28;20512;-72
2022/12/24 07:25:51;;;;;;;42.30;7.68;;;9.20;99.90;;;;;;5077156;28;20044;-72
2022/12/24 07:28:17;;;;;;;42.63;8.00;;;9.10;99.90;;;;;;5069465;28;20045;-72
2022/12/24 07:30:42;;;;;;;41.22;9.00;;;9.10;99.90;;;;;;5085890;28;20045;-72
2022/12/24 07:33:08;;;;;;;38.10;7.22;;;8.90;99.90;;;;;;5065274;28;20124;-71
2022/12/24 07:35:34;;;;;;;47.08;8.10;;;9.10;99.90;;;;;;5063696;28;20047;-72
2022/12/24 07:38:01;;;;;;;39.42;8.55;;;9.00;99.90;;;;;;5066769;28;20041;-71
2022/12/24 07:40:26;;;;;;;40.30;6.68;;;9.10;99.90;;;;;;5063983;28;20565;-74
2022/12/24 07:42:52;;;;;;;31.35;6.88;;;9.00;99.90;;;;;;5062687;28;20044;-72
2022/12/24 07:45:18;;;;;;;41.72;8.27;;;9.00;99.90;;;;;;5076177;28;20049;-72
2022/12/24 07:47:43;;;;;;;33.45;7.13;;;9.10;99.90;;;;;;5057492;28;20055;-72
2022/12/24 07:50:09;;;;;;;42.17;7.82;;;9.00;99.90;;;;;;5054099;28;20130;-73
2022/12/24 07:52:35;;;;;;;37.65;7.28;;;9.00;99.90;;;;;;5064327;28;20048;-73
2022/12/24 07:55:01;;;;;;;42.15;8.27;;;9.00;99.90;;;;;;5059759;28;20059;-73
2022/12/24 07:57:26;;;;;;;40.88;8.02;;;9.00;99.90;;;;;;5077732;28;20098;-73
2022/12/24 07:59:52;;;;;;;36.65;7.53;;;9.00;99.90;;;;;;5065119;28;20041;-74
2022/12/24 08:02:18;;;;;;;39.00;7.68;;;9.10;99.90;;;;;;5064751;28;20055;-75
2022/12/24 08:04:43;;;;;;;33.88;6.70;;;9.20;99.90;;;;;;5077122;28;20409;-73
2022/12/24 08:07:09;;;;;;;33.08;5.95;;;9.10;99.90;;;;;;5059930;28;20056;-71
2022/12/24 08:09:36;;;;;;;46.10;8.30;;;9.10;99.90;;;;;;5075852;28;20083;-71
2022/12/24 08:12:02;;;;;;;36.70;6.82;;;9.00;99.90;;;;;;5063465;28;20102;-71
2022/12/24 08:14:31;;;;;;;45.08;6.93;;;9.00;99.90;;;;;;5063519;28;20053;-71
2022/12/24 08:16:57;;;;;;;43.00;7.78;;;9.00;99.90;;;;;;5081586;28;20424;-71
2022/12/24 08:19:23;;;;;;;34.70;6.97;;;9.10;99.90;;;;;;5059887;28;20048;-71
2022/12/24 08:21:49;;;;;;;41.45;8.45;;;9.20;99.90;;;;;;5047119;28;20052;-71
2022/12/24 08:24:15;;;;;;;33.30;6.25;;;9.10;99.90;;;;;;5078280;28;20102;-71
2022/12/24 08:26:40;;;;;;;38.17;7.15;;;9.20;99.90;;;;;;5061811;28;20048;-71
2022/12/24 08:29:06;;;;;;;32.90;6.55;;;9.00;99.90;;;;;;5077808;28;20072;-71
2022/12/24 08:31:35;;;;;;;32.97;7.05;;;9.20;99.90;;;;;;5073538;28;20064;-68
2022/12/24 08:34:06;;;;;;;34.67;7.13;;;9.10;99.90;;;;;;5058134;28;20101;-69
2022/12/24 08:36:32;;;;;;;38.25;7.03;;;9.20;99.90;;;;;;5082277;28;20106;-68
2022/12/24 08:39:02;;;;;;;39.50;7.85;;;9.10;99.90;;;;;;5077273;28;20053;-68
2022/12/24 08:41:31;;;;;;;36.90;6.80;;;9.20;99.90;;;;;;5055849;28;20051;-69
2022/12/24 08:43:57;;;;;;;29.63;7.45;;;9.10;99.90;;;;;;5060705;28;20294;-69
2022/12/24 08:46:22;;;;;;;37.80;6.82;;;9.20;99.90;;;;;;5063364;28;20056;-69
2022/12/24 08:48:48;;;;;;;40.80;7.55;;;9.20;99.90;;;;;;5058457;28;20195;-69
2022/12/24 08:51:14;;;;;;;38.70;7.03;;;9.20;99.90;;;;;;5047471;28;20053;-69
2022/12/24 08:53:40;;;;;;;34.88;6.93;;;9.30;99.90;;;;;;5048058;28;20079;-70
2022/12/24 08:56:08;;;;;;;38.85;7.05;;;9.30;99.90;;;;;;5064269;28;20521;-70
2022/12/24 08:58:34;;;;;;;32.17;7.63;;;9.20;99.90;;;;;;5058176;28;20056;-70
2022/12/24 09:01:00;;;;;;;44.08;7.88;;;9.30;99.90;;;;;;5062267;28;20045;-70
2022/12/24 09:03:26;;;;;;;44.80;7.93;;;9.30;99.90;;;;;;5063278;28;20122;-70
2022/12/24 09:05:54;;;;;;;38.25;6.85;;;9.20;99.90;;;;;;5054153;28;20041;-70
2022/12/24 09:08:20;;;;;;;31.70;6.95;;;9.40;99.90;;;;;;5060330;28;20080;-70
2022/12/24 09:10:46;;;;;;;47.22;7.05;;;9.20;99.90;;;;;;5063332;28;20508;-70
2022/12/24 09:13:12;;;;;;;44.65;9.00;;;9.20;99.90;;;;;;5061491;28;20044;-70
2022/12/24 09:15:37;;;;;;;38.08;8.27;;;9.40;99.90;;;;;;5043429;28;20037;-70
2022/12/24 09:18:03;;;;;;;46.45;9.55;;;9.30;99.90;;;;;;5075911;28;20063;-70
2022/12/24 09:20:29;;;;;;;39.10;8.02;;;9.30;99.90;;;;;;5080789;28;20413;-70
2022/12/24 09:22:54;;;;;;;46.03;8.65;;;9.20;99.90;;;;;;5060327;28;20048;-70
2022/12/24 09:25:20;;;;;;;40.45;7.20;;;9.40;99.90;;;;;;5063368;28;20044;-76
2022/12/24 09:27:46;;;;;;;44.65;8.10;;;9.40;99.90;;;;;;5060105;28;20048;-70
2022/12/24 09:30:12;;;;;;;40.92;8.18;;;9.30;99.90;;;;;;5065324;28;20040;-71
2022/12/24 09:32:38;;;;;;;37.65;7.70;;;9.40;99.90;;;;;;5078606;28;20040;-69
2022/12/24 09:35:04;;;;;;;47.10;9.57;;;9.40;99.90;;;;;;5056469;28;20048;-69
2022/12/24 09:37:30;;;;;;;37.95;7.75;;;9.40;99.90;;;;;;5065978;28;20048;-69
2022/12/24 09:39:55;;;;;;;45.70;8.43;;;9.50;99.90;;;;;;5063457;28;20047;-69
2022/12/24 09:42:44;;;;;;;41.95;8.15;;;9.60;99.90;;;;;;5047835;28;20149;-69
2022/12/24 09:45:23;;;;;;;38.38;8.18;;;9.50;99.90;;;;;;5046238;28;20079;-67
2022/12/24 09:47:53;;;;;;;45.28;8.90;;;9.60;99.90;;;;;;5060868;28;20091;-69
2022/12/24 09:50:21;;;;;;;;;;;9.50;99.90;;;;;;5070709;28;20236;-68
2022/12/24 09:52:49;;;;;;;47.25;9.77;;;9.70;99.90;;;;;;5058585;28;19943;-68
2022/12/24 09:55:27;;;;;;;55.95;10.75;;;9.80;99.90;;;;;;5050290;28;20049;-68
2022/12/24 09:57:54;;;;;;;39.78;8.63;;;9.80;99.90;;;;;;5061477;28;20044;-67
2022/12/24 10:00:25;;;;;;;44.65;10.05;;;9.80;99.90;;;;;;5061833;28;20040;-68
2022/12/24 10:02:51;;;;;;;41.88;8.43;;;9.70;99.90;;;;;;5083282;28;20404;-68
2022/12/24 10:05:34;;;;;;;54.80;10.13;;;9.70;99.90;;;;;;5067156;28;20068;-67
2022/12/24 10:08:27;;;;;;;51.42;8.95;;;9.60;99.90;;;;;;5057449;28;20070;-69
2022/12/24 10:11:09;;;;;;;38.92;8.13;;;9.70;99.90;;;;;;5065897;28;20048;-68
2022/12/24 10:14:00;;;;;;;33.45;7.78;;;9.60;99.90;;;;;;5080896;28;20147;-68
2022/12/24 10:16:41;;;;;;;36.70;7.65;;;9.40;99.90;;;;;;5050944;28;20131;-68
2022/12/24 10:19:15;;;;;;;26.98;6.57;;;9.50;99.90;;;;;;5068319;28;20044;-68
2022/12/24 10:22:19;;;;;;;24.10;6.25;;;9.50;99.90;;;;;;5064140;28;20049;-68
2022/12/24 10:25:13;;;;;;;28.20;6.68;;;9.40;99.90;;;;;;5081655;28;20053;-68
2022/12/24 10:27:39;;;;;;;28.30;6.30;;;9.40;99.90;;;;;;5068420;28;20052;-69
2022/12/24 10:30:18;;;;;;;24.67;4.72;;;9.40;99.90;;;;;;5047820;28;20083;-69
2022/12/24 10:32:47;;;;;;;27.27;5.03;;;9.50;99.90;;;;;;5048275;28;20060;-69
2022/12/24 10:35:16;;;;;;;27.42;5.22;;;9.50;99.90;;;;;;5065931;28;20120;-69
2022/12/24 10:37:43;;;;;;;23.92;4.90;;;9.50;99.90;;;;;;5066803;28;20049;-69
2022/12/24 10:40:31;;;;;;;22.30;4.68;;;9.50;99.90;;;;;;5086172;28;20052;-68
2022/12/24 10:42:56;;;;;;;25.33;5.18;;;9.60;99.90;;;;;;5067563;28;20067;-68
2022/12/24 10:45:25;;;;;;;27.45;5.50;;;9.60;99.90;;;;;;5047883;28;20053;-68
2022/12/24 10:48:00;;;;;;;28.88;6.72;;;9.60;99.90;;;;;;5074226;28;20060;-69
2022/12/24 10:50:25;;;;;;;28.10;5.90;;;9.60;99.90;;;;;;5065642;28;20048;-69
2022/12/24 10:52:55;;;;;;;27.67;6.07;;;9.50;99.90;;;;;;5073796;28;20051;-69
2022/12/24 10:55:23;;;;;;;26.58;6.40;;;9.60;99.90;;;;;;5061840;28;20452;-69
2022/12/24 10:58:06;;;;;;;25.88;6.32;;;9.60;99.90;;;;;;5064127;28;20244;-69
2022/12/24 11:00:34;;;;;;;29.58;6.25;;;9.70;99.90;;;;;;5059194;28;20112;-69
2022/12/24 11:03:12;;;;;;;26.73;5.25;;;9.90;99.90;;;;;;5053824;28;20103;-69
2022/12/24 11:05:38;;;;;;;30.25;6.25;;;9.80;99.90;;;;;;5063460;28;20493;-68
2022/12/24 11:08:12;;;;;;;33.53;6.25;;;9.70;99.90;;;;;;5061940;28;20040;-69
2022/12/24 11:10:42;;;;;;;28.10;5.80;;;9.70;99.90;;;;;;5064540;28;20041;-70
2022/12/24 11:13:27;;;;;;;38.38;7.22;;;9.80;99.90;;;;;;5064472;28;20040;-69
2022/12/24 11:16:14;;;;;;;36.67;7.15;;;9.90;99.90;;;;;;5065315;28;20060;-69
2022/12/24 11:19:01;;;;;;;34.22;5.43;;;10.00;99.90;;;;;;5082051;28;20108;-70
2022/12/24 11:21:33;;;;;;;36.47;6.43;;;10.10;99.90;;;;;;5063689;28;20081;-72
2022/12/24 11:24:01;;;;;;;35.85;6.93;;;10.00;99.90;;;;;;5058382;28;20052;-73
2022/12/24 11:26:29;;;;;;;39.33;6.80;;;9.90;99.90;;;;;;5062613;28;20041;-74
2022/12/24 11:29:06;;;;;;;45.10;7.38;;;10.00;99.90;;;;;;5065872;28;20128;-73
2022/12/24 11:31:34;;;;;;;36.53;7.07;;;10.00;99.90;;;;;;5063494;28;20070;-71
2022/12/24 11:34:02;;;;;;;34.88;7.45;;;9.80;99.90;;;;;;5065613;28;20052;-72
2022/12/24 11:36:29;;;;;;;34.67;6.32;;;9.70;99.90;;;;;;5078613;28;20056;-70
2022/12/24 11:38:58;;;;;;;37.92;6.43;;;9.80;99.90;;;;;;5053640;28;20033;-72
2022/12/24 11:41:25;;;;;;;36.28;7.47;;;9.90;99.90;;;;;;5063775;28;20044;-70
2022/12/24 11:44:00;;;;;;;38.13;7.38;;;9.80;99.90;;;;;;5069194;28;20303;-70
2022/12/24 11:46:38;;;;;;;31.65;5.85;;;9.90;99.90;;;;;;5071037;28;20090;-77
2022/12/24 11:49:12;;;;;;;29.17;5.60;;;9.90;99.90;;;;;;5054557;28;20048;-74
2022/12/24 11:51:43;;;;;;;31.13;6.05;;;10.10;99.90;;;;;;5059957;28;20045;-73
2022/12/24 11:54:26;;;;;;;37.03;5.88;;;10.00;99.90;;;;;;5032396;28;20044;-79
2022/12/24 11:56:55;;;;;;;33.72;6.78;;;10.10;99.90;;;;;;5064833;28;20112;-76
2022/12/24 11:59:43;;;;;;;32.25;6.30;;;10.00;99.90;;;;;;5071177;28;20048;-73
2022/12/24 12:02:25;;;;;;;30.77;5.40;;;10.10;99.90;;;;;;5054320;28;20056;-76
2022/12/24 12:04:55;;;;;;;28.63;5.85;;;10.20;99.90;;;;;;5062870;28;20098;-74
2022/12/24 12:07:27;;;;;;;33.72;5.75;;;10.10;99.90;;;;;;5053921;28;20368;-75
2022/12/24 12:10:23;;;;;;;35.08;6.60;;;10.30;99.90;;;;;;5050424;28;20069;-75
2022/12/24 12:13:11;;;;;;;30.90;5.80;;;10.20;99.90;;;;;;5066920;28;20081;-75
2022/12/24 12:15:50;;;;;;;27.67;6.25;;;10.30;99.90;;;;;;5052649;28;20065;-77
2022/12/24 12:18:21;;;;;;;29.63;5.47;;;10.20;99.90;;;;;;5066960;28;20071;-74
2022/12/24 12:20:53;;;;;;;28.35;5.32;;;10.20;99.90;;;;;;5083922;28;20045;-67
2022/12/24 12:23:27;;;;;;;26.42;4.72;;;10.30;99.90;;;;;;5066952;28;20100;-67
2022/12/24 12:26:21;;;;;;;29.23;4.82;;;10.10;99.90;;;;;;5065128;28;20102;-72
2022/12/24 12:28:56;;;;;;;26.30;4.18;;;10.20;99.90;;;;;;5056035;28;20041;-70
2022/12/24 12:31:30;;;;;;;32.55;4.97;;;10.20;99.90;;;;;;5058872;28;20044;-71
2022/12/24 12:34:20;;;;;;;34.70;6.15;;;10.10;99.90;;;;;;5050457;28;20036;-72
2022/12/24 12:37:06;;;;;;;27.20;4.45;;;10.10;99.90;;;;;;5035660;28;20101;-69
2022/12/24 12:39:34;;;;;;;31.27;5.45;;;10.10;99.90;;;;;;5056253;28;20062;-68
2022/12/24 12:42:31;;;;;;;27.48;4.13;;;10.00;99.90;;;;;;5070466;28;20055;-70
2022/12/24 12:45:29;;;;;;;25.40;4.75;;;9.90;99.90;;;;;;5076513;28;20051;-70
2022/12/24 12:48:21;;;;;;;31.05;5.25;;;9.90;99.90;;;;;;5059413;28;20048;-73
2022/12/24 12:50:50;;;;;;;29.20;4.72;;;10.00;99.90;;;;;;5014400;28;20060;-70
2022/12/24 12:53:27;;;;;;;28.10;4.78;;;10.00;99.90;;;;;;5007073;28;20058;-70
2022/12/24 12:56:01;;;;;;;27.88;5.20;;;9.90;99.90;;;;;;5005225;28;20053;-70
2022/12/24 12:58:36;;;;;;;27.55;4.13;;;10.20;99.90;;;;;;4990909;28;20058;-67
2022/12/24 13:01:28;;;;;;;30.35;4.93;;;10.20;99.90;;;;;;5010869;28;20062;-66